sensor_id;sensor_type;location;lat;lon;timestamp;temperature;humidity
33067;DHT22;19428;49.024;8.366;2022-08-01T00:00:37;22.50;95.30
33067;DHT22;19428;49.024;8.366;2022-08-01T00:03:03;22.50;95.70
33067;DHT22;19428;49.024;8.366;2022-08-01T00:05:29;22.60;95.70
33067;DHT22;19428;49.024;8.366;2022-08-01T00:07:55;22.50;95.90
33067;DHT22;19428;49.024;8.366;2022-08-01T00:10:20;22.60;95.90
33067;DHT22;19428;49.024;8.366;2022-08-01T00:12:46;22.60;96.00
33067;DHT22;19428;49.024;8.366;2022-08-01T00:15:13;22.50;96.10
33067;DHT22;19428;49.024;8.366;2022-08-01T00:17:39;22.60;96.10
33067;DHT22;19428;49.024;8.366;2022-08-01T00:20:07;22.50;96.20
33067;DHT22;19428;49.024;8.366;2022-08-01T00:22:33;22.30;96.80
33067;DHT22;19428;49.024;8.366;2022-08-01T00:24:59;22.30;97.30
33067;DHT22;19428;49.024;8.366;2022-08-01T00:27:25;22.20;97.80
33067;DHT22;19428;49.024;8.366;2022-08-01T00:29:51;22.10;98.10
33067;DHT22;19428;49.024;8.366;2022-08-01T00:32:16;22.10;98.30
33067;DHT22;19428;49.024;8.366;2022-08-01T00:34:42;22.20;98.40
33067;DHT22;19428;49.024;8.366;2022-08-01T00:37:07;22.10;98.60
33067;DHT22;19428;49.024;8.366;2022-08-01T00:39:34;22.10;99.10
33067;DHT22;19428;49.024;8.366;2022-08-01T00:42:06;22.10;99.50
33067;DHT22;19428;49.024;8.366;2022-08-01T00:44:32;22.00;99.90
33067;DHT22;19428;49.024;8.366;2022-08-01T00:46:58;22.00;99.90
33067;DHT22;19428;49.024;8.366;2022-08-01T00:49:24;22.00;99.90
33067;DHT22;19428;49.024;8.366;2022-08-01T00:51:50;21.90;99.90
33067;DHT22;19428;49.024;8.366;2022-08-01T00:54:16;21.90;99.90
33067;DHT22;19428;49.024;8.366;2022-08-01T00:56:41;21.90;99.90
33067;DHT22;19428;49.024;8.366;2022-08-01T00:59:08;21.90;99.90
33067;DHT22;19428;49.024;8.366;2022-08-01T01:01:34;21.90;99.90
33067;DHT22;19428;49.024;8.366;2022-08-01T01:04:00;21.90;99.90
33067;DHT22;19428;49.024;8.366;2022-08-01T01:06:48;21.90;99.90
33067;DHT22;19428;49.024;8.366;2022-08-01T01:12:13;21.80;99.90
33067;DHT22;19428;49.024;8.366;2022-08-01T01:15:02;21.90;99.90
33067;DHT22;19428;49.024;8.366;2022-08-01T01:17:52;21.80;99.90
33067;DHT22;19428;49.024;8.366;2022-08-01T01:20:27;21.80;99.90
33067;DHT22;19428;49.024;8.366;2022-08-01T01:22:57;21.70;99.90
33067;DHT22;19428;49.024;8.366;2022-08-01T01:28:33;21.70;99.90
33067;DHT22;19428;49.024;8.366;2022-08-01T01:31:01;21.80;99.90
33067;DHT22;19428;49.024;8.366;2022-08-01T01:33:29;21.70;99.90
33067;DHT22;19428;49.024;8.366;2022-08-01T01:36:01;21.70;99.90
33067;DHT22;19428;49.024;8.366;2022-08-01T01:38:32;21.60;99.90
33067;DHT22;19428;49.024;8.366;2022-08-01T01:41:00;21.70;99.90
33067;DHT22;19428;49.024;8.366;2022-08-01T01:43:27;21.60;99.90
33067;DHT22;19428;49.024;8.366;2022-08-01T01:45:55;21.60;99.90
33067;DHT22;19428;49.024;8.366;2022-08-01T01:48:23;21.50;99.90
33067;DHT22;19428;49.024;8.366;2022-08-01T01:50:49;21.50;99.90
33067;DHT22;19428;49.024;8.366;2022-08-01T01:53:19;21.50;99.90
33067;DHT22;19428;49.024;8.366;2022-08-01T01:55:48;21.50;99.90
33067;DHT22;19428;49.024;8.366;2022-08-01T01:58:15;21.40;99.90
33067;DHT22;19428;49.024;8.366;2022-08-01T02:00:42;21.40;99.90
33067;DHT22;19428;49.024;8.366;2022-08-01T02:03:11;21.30;99.90
33067;DHT22;19428;49.024;8.366;2022-08-01T02:05:38;21.30;99.90
33067;DHT22;19428;49.024;8.366;2022-08-01T02:08:05;21.20;99.90
33067;DHT22;19428;49.024;8.366;2022-08-01T02:10:34;21.30;99.90
33067;DHT22;19428;49.024;8.366;2022-08-01T02:13:02;21.30;99.90
33067;DHT22;19428;49.024;8.366;2022-08-01T02:15:31;21.20;99.90
33067;DHT22;19428;49.024;8.366;2022-08-01T02:17:57;21.20;99.90
33067;DHT22;19428;49.024;8.366;2022-08-01T02:20:26;21.20;99.90
33067;DHT22;19428;49.024;8.366;2022-08-01T02:22:57;21.20;99.90
33067;DHT22;19428;49.024;8.366;2022-08-01T02:25:27;21.20;99.90
33067;DHT22;19428;49.024;8.366;2022-08-01T02:28:07;21.20;99.90
33067;DHT22;19428;49.024;8.366;2022-08-01T02:30:36;21.10;99.90
33067;DHT22;19428;49.024;8.366;2022-08-01T02:35:42;21.10;99.90
33067;DHT22;19428;49.024;8.366;2022-08-01T02:38:10;21.10;99.90
33067;DHT22;19428;49.024;8.366;2022-08-01T02:40:38;21.00;99.90
33067;DHT22;19428;49.024;8.366;2022-08-01T02:43:06;21.00;99.90
33067;DHT22;19428;49.024;8.366;2022-08-01T02:45:35;21.00;99.90
33067;DHT22;19428;49.024;8.366;2022-08-01T02:48:09;21.00;99.90
33067;DHT22;19428;49.024;8.366;2022-08-01T02:50:36;21.00;99.90
33067;DHT22;19428;49.024;8.366;2022-08-01T02:53:02;21.00;99.90
33067;DHT22;19428;49.024;8.366;2022-08-01T02:55:30;21.00;99.90
33067;DHT22;19428;49.024;8.366;2022-08-01T02:57:59;20.90;99.90
33067;DHT22;19428;49.024;8.366;2022-08-01T03:00:26;20.90;99.90
33067;DHT22;19428;49.024;8.366;2022-08-01T03:02:53;20.90;99.90
33067;DHT22;19428;49.024;8.366;2022-08-01T03:05:20;20.90;99.90
33067;DHT22;19428;49.024;8.366;2022-08-01T03:07:49;21.00;99.90
33067;DHT22;19428;49.024;8.366;2022-08-01T03:10:16;20.90;99.90
33067;DHT22;19428;49.024;8.366;2022-08-01T03:12:42;20.90;99.90
33067;DHT22;19428;49.024;8.366;2022-08-01T03:15:10;20.90;99.90
33067;DHT22;19428;49.024;8.366;2022-08-01T03:17:39;20.90;99.90
33067;DHT22;19428;49.024;8.366;2022-08-01T03:20:06;20.90;99.90
33067;DHT22;19428;49.024;8.366;2022-08-01T03:22:34;20.90;99.90
33067;DHT22;19428;49.024;8.366;2022-08-01T03:25:01;20.90;99.90
33067;DHT22;19428;49.024;8.366;2022-08-01T03:27:27;20.90;99.90
33067;DHT22;19428;49.024;8.366;2022-08-01T03:29:56;20.80;99.90
33067;DHT22;19428;49.024;8.366;2022-08-01T03:32:23;20.80;99.90
33067;DHT22;19428;49.024;8.366;2022-08-01T03:34:50;20.80;99.90
33067;DHT22;19428;49.024;8.366;2022-08-01T03:37:25;20.70;99.90
33067;DHT22;19428;49.024;8.366;2022-08-01T03:39:58;20.70;99.90
33067;DHT22;19428;49.024;8.366;2022-08-01T03:42:36;20.60;99.90
33067;DHT22;19428;49.024;8.366;2022-08-01T03:45:08;20.60;99.90
33067;DHT22;19428;49.024;8.366;2022-08-01T03:47:35;20.60;99.90
33067;DHT22;19428;49.024;8.366;2022-08-01T03:50:03;20.60;99.90
33067;DHT22;19428;49.024;8.366;2022-08-01T03:52:30;20.70;99.90
33067;DHT22;19428;49.024;8.366;2022-08-01T03:54:59;20.60;99.90
33067;DHT22;19428;49.024;8.366;2022-08-01T03:57:28;20.50;99.90
33067;DHT22;19428;49.024;8.366;2022-08-01T03:59:55;20.50;99.90
33067;DHT22;19428;49.024;8.366;2022-08-01T04:02:22;20.40;99.90
33067;DHT22;19428;49.024;8.366;2022-08-01T04:04:48;20.50;99.90
33067;DHT22;19428;49.024;8.366;2022-08-01T04:07:24;20.50;99.90
33067;DHT22;19428;49.024;8.366;2022-08-01T04:09:50;20.40;99.90
33067;DHT22;19428;49.024;8.366;2022-08-01T04:12:16;20.40;99.90
33067;DHT22;19428;49.024;8.366;2022-08-01T04:14:41;20.40;99.90
33067;DHT22;19428;49.024;8.366;2022-08-01T04:17:07;20.40;99.90
33067;DHT22;19428;49.024;8.366;2022-08-01T04:19:32;20.40;99.90
33067;DHT22;19428;49.024;8.366;2022-08-01T04:21:58;20.40;99.90
33067;DHT22;19428;49.024;8.366;2022-08-01T04:24:25;20.30;99.90
33067;DHT22;19428;49.024;8.366;2022-08-01T04:26:54;20.30;99.90
33067;DHT22;19428;49.024;8.366;2022-08-01T04:29:20;20.40;99.90
33067;DHT22;19428;49.024;8.366;2022-08-01T04:31:48;20.40;99.90
33067;DHT22;19428;49.024;8.366;2022-08-01T04:34:17;20.30;99.90
33067;DHT22;19428;49.024;8.366;2022-08-01T04:36:47;20.40;99.90
33067;DHT22;19428;49.024;8.366;2022-08-01T04:39:13;20.50;99.90
33067;DHT22;19428;49.024;8.366;2022-08-01T04:41:41;20.60;99.90
33067;DHT22;19428;49.024;8.366;2022-08-01T04:44:07;20.70;99.90
33067;DHT22;19428;49.024;8.366;2022-08-01T04:46:34;20.80;99.90
33067;DHT22;19428;49.024;8.366;2022-08-01T04:48:59;20.80;99.90
33067;DHT22;19428;49.024;8.366;2022-08-01T04:51:26;20.90;99.90
33067;DHT22;19428;49.024;8.366;2022-08-01T04:53:52;20.90;99.90
33067;DHT22;19428;49.024;8.366;2022-08-01T04:56:19;20.90;99.90
33067;DHT22;19428;49.024;8.366;2022-08-01T04:58:46;21.00;99.90
33067;DHT22;19428;49.024;8.366;2022-08-01T05:01:12;21.00;99.90
33067;DHT22;19428;49.024;8.366;2022-08-01T05:03:38;21.10;99.90
33067;DHT22;19428;49.024;8.366;2022-08-01T05:06:03;21.20;99.90
33067;DHT22;19428;49.024;8.366;2022-08-01T05:08:29;21.10;99.90
33067;DHT22;19428;49.024;8.366;2022-08-01T05:10:55;21.20;99.90
33067;DHT22;19428;49.024;8.366;2022-08-01T05:13:21;21.10;99.90
33067;DHT22;19428;49.024;8.366;2022-08-01T05:15:47;21.20;99.90
33067;DHT22;19428;49.024;8.366;2022-08-01T05:18:12;21.20;99.90
33067;DHT22;19428;49.024;8.366;2022-08-01T05:20:38;21.40;99.90
33067;DHT22;19428;49.024;8.366;2022-08-01T05:23:06;21.30;99.90
33067;DHT22;19428;49.024;8.366;2022-08-01T05:25:32;21.30;99.90
33067;DHT22;19428;49.024;8.366;2022-08-01T05:27:58;21.40;99.90
33067;DHT22;19428;49.024;8.366;2022-08-01T05:30:24;21.40;99.90
33067;DHT22;19428;49.024;8.366;2022-08-01T05:32:49;21.30;99.90
33067;DHT22;19428;49.024;8.366;2022-08-01T05:35:15;21.40;99.90
33067;DHT22;19428;49.024;8.366;2022-08-01T05:37:43;21.60;99.90
33067;DHT22;19428;49.024;8.366;2022-08-01T05:40:09;21.50;99.90
33067;DHT22;19428;49.024;8.366;2022-08-01T05:42:35;21.60;99.90
33067;DHT22;19428;49.024;8.366;2022-08-01T05:45:01;21.70;99.90
33067;DHT22;19428;49.024;8.366;2022-08-01T05:47:26;21.70;99.90
33067;DHT22;19428;49.024;8.366;2022-08-01T05:49:52;21.90;99.90
33067;DHT22;19428;49.024;8.366;2022-08-01T05:52:18;22.20;99.90
33067;DHT22;19428;49.024;8.366;2022-08-01T05:54:44;22.30;99.90
33067;DHT22;19428;49.024;8.366;2022-08-01T05:57:11;22.10;99.90
33067;DHT22;19428;49.024;8.366;2022-08-01T05:59:36;22.10;99.90
33067;DHT22;19428;49.024;8.366;2022-08-01T06:02:03;22.40;99.90
33067;DHT22;19428;49.024;8.366;2022-08-01T06:04:29;22.30;99.90
33067;DHT22;19428;49.024;8.366;2022-08-01T06:06:54;22.40;99.90
33067;DHT22;19428;49.024;8.366;2022-08-01T06:09:20;22.90;99.90
33067;DHT22;19428;49.024;8.366;2022-08-01T06:11:45;22.60;99.90
33067;DHT22;19428;49.024;8.366;2022-08-01T06:14:11;22.80;99.90
33067;DHT22;19428;49.024;8.366;2022-08-01T06:16:37;22.70;99.90
33067;DHT22;19428;49.024;8.366;2022-08-01T06:19:02;22.70;99.90
33067;DHT22;19428;49.024;8.366;2022-08-01T06:21:28;22.60;99.90
33067;DHT22;19428;49.024;8.366;2022-08-01T06:23:53;22.70;99.90
33067;DHT22;19428;49.024;8.366;2022-08-01T06:26:19;22.60;99.90
33067;DHT22;19428;49.024;8.366;2022-08-01T06:28:45;22.90;99.90
33067;DHT22;19428;49.024;8.366;2022-08-01T06:31:11;23.10;99.90
33067;DHT22;19428;49.024;8.366;2022-08-01T06:33:38;23.40;99.90
33067;DHT22;19428;49.024;8.366;2022-08-01T06:36:04;23.70;99.90
33067;DHT22;19428;49.024;8.366;2022-08-01T06:38:30;23.60;99.90
33067;DHT22;19428;49.024;8.366;2022-08-01T06:40:55;23.40;99.90
33067;DHT22;19428;49.024;8.366;2022-08-01T06:43:21;23.10;99.90
33067;DHT22;19428;49.024;8.366;2022-08-01T06:45:47;23.10;99.90
33067;DHT22;19428;49.024;8.366;2022-08-01T06:48:12;22.90;99.90
33067;DHT22;19428;49.024;8.366;2022-08-01T06:50:38;23.00;99.90
33067;DHT22;19428;49.024;8.366;2022-08-01T06:53:04;23.10;99.90
33067;DHT22;19428;49.024;8.366;2022-08-01T06:55:30;23.20;99.90
33067;DHT22;19428;49.024;8.366;2022-08-01T06:57:56;23.40;99.90
33067;DHT22;19428;49.024;8.366;2022-08-01T07:00:23;23.30;99.90
33067;DHT22;19428;49.024;8.366;2022-08-01T07:02:53;23.10;99.90
33067;DHT22;19428;49.024;8.366;2022-08-01T07:05:19;23.20;99.90
33067;DHT22;19428;49.024;8.366;2022-08-01T07:07:45;23.40;99.90
33067;DHT22;19428;49.024;8.366;2022-08-01T07:10:11;23.80;99.90
33067;DHT22;19428;49.024;8.366;2022-08-01T07:12:37;23.90;99.90
33067;DHT22;19428;49.024;8.366;2022-08-01T07:15:07;23.90;99.90
33067;DHT22;19428;49.024;8.366;2022-08-01T07:17:40;23.60;99.90
33067;DHT22;19428;49.024;8.366;2022-08-01T07:20:11;23.70;99.90
33067;DHT22;19428;49.024;8.366;2022-08-01T07:22:37;23.70;99.90
33067;DHT22;19428;49.024;8.366;2022-08-01T07:25:05;23.70;99.90
33067;DHT22;19428;49.024;8.366;2022-08-01T07:27:30;23.80;99.90
33067;DHT22;19428;49.024;8.366;2022-08-01T07:29:56;23.60;99.90
33067;DHT22;19428;49.024;8.366;2022-08-01T07:32:21;23.70;99.90
33067;DHT22;19428;49.024;8.366;2022-08-01T07:34:47;23.70;99.90
33067;DHT22;19428;49.024;8.366;2022-08-01T07:37:13;23.50;99.90
33067;DHT22;19428;49.024;8.366;2022-08-01T07:39:38;23.60;99.90
33067;DHT22;19428;49.024;8.366;2022-08-01T07:42:04;23.80;99.90
33067;DHT22;19428;49.024;8.366;2022-08-01T07:44:29;23.80;99.90
33067;DHT22;19428;49.024;8.366;2022-08-01T07:46:55;23.90;99.90
33067;DHT22;19428;49.024;8.366;2022-08-01T07:49:21;23.90;99.90
33067;DHT22;19428;49.024;8.366;2022-08-01T07:51:47;23.90;99.90
33067;DHT22;19428;49.024;8.366;2022-08-01T07:54:12;24.00;99.90
33067;DHT22;19428;49.024;8.366;2022-08-01T07:56:38;24.10;99.90
33067;DHT22;19428;49.024;8.366;2022-08-01T07:59:04;24.10;99.90
33067;DHT22;19428;49.024;8.366;2022-08-01T08:01:29;23.90;99.90
33067;DHT22;19428;49.024;8.366;2022-08-01T08:03:55;24.00;99.90
33067;DHT22;19428;49.024;8.366;2022-08-01T08:06:21;24.40;99.90
33067;DHT22;19428;49.024;8.366;2022-08-01T08:08:47;24.30;99.90
33067;DHT22;19428;49.024;8.366;2022-08-01T08:11:12;24.30;99.90
33067;DHT22;19428;49.024;8.366;2022-08-01T08:13:38;24.30;99.90
33067;DHT22;19428;49.024;8.366;2022-08-01T08:16:04;24.30;99.90
33067;DHT22;19428;49.024;8.366;2022-08-01T08:18:29;24.50;99.90
33067;DHT22;19428;49.024;8.366;2022-08-01T08:20:55;24.30;99.90
33067;DHT22;19428;49.024;8.366;2022-08-01T08:23:21;24.30;99.90
33067;DHT22;19428;49.024;8.366;2022-08-01T08:26:05;24.60;99.90
33067;DHT22;19428;49.024;8.366;2022-08-01T08:28:31;24.80;99.90
33067;DHT22;19428;49.024;8.366;2022-08-01T08:30:56;24.90;99.90
33067;DHT22;19428;49.024;8.366;2022-08-01T08:33:22;25.10;99.90
33067;DHT22;19428;49.024;8.366;2022-08-01T08:35:47;24.70;99.90
33067;DHT22;19428;49.024;8.366;2022-08-01T08:38:13;24.60;99.90
33067;DHT22;19428;49.024;8.366;2022-08-01T08:40:39;24.70;99.90
33067;DHT22;19428;49.024;8.366;2022-08-01T08:43:05;25.20;99.90
33067;DHT22;19428;49.024;8.366;2022-08-01T08:45:31;25.30;99.90
33067;DHT22;19428;49.024;8.366;2022-08-01T08:47:57;25.60;99.90
33067;DHT22;19428;49.024;8.366;2022-08-01T08:50:24;25.20;99.90
33067;DHT22;19428;49.024;8.366;2022-08-01T08:52:52;25.20;99.90
33067;DHT22;19428;49.024;8.366;2022-08-01T08:55:18;25.30;99.90
33067;DHT22;19428;49.024;8.366;2022-08-01T08:57:45;24.90;99.90
33067;DHT22;19428;49.024;8.366;2022-08-01T09:00:11;25.30;99.90
33067;DHT22;19428;49.024;8.366;2022-08-01T09:02:42;25.70;99.90
33067;DHT22;19428;49.024;8.366;2022-08-01T09:05:08;26.20;99.90
33067;DHT22;19428;49.024;8.366;2022-08-01T09:07:34;26.20;99.90
33067;DHT22;19428;49.024;8.366;2022-08-01T09:10:00;25.90;99.90
33067;DHT22;19428;49.024;8.366;2022-08-01T09:12:25;25.60;99.90
33067;DHT22;19428;49.024;8.366;2022-08-01T09:14:51;25.40;99.90
33067;DHT22;19428;49.024;8.366;2022-08-01T09:17:19;25.70;99.90
33067;DHT22;19428;49.024;8.366;2022-08-01T09:19:54;25.90;99.90
33067;DHT22;19428;49.024;8.366;2022-08-01T09:22:24;26.20;99.90
33067;DHT22;19428;49.024;8.366;2022-08-01T09:27:29;26.80;99.90
33067;DHT22;19428;49.024;8.366;2022-08-01T09:30:10;26.40;99.90
33067;DHT22;19428;49.024;8.366;2022-08-01T09:32:51;26.90;99.90
33067;DHT22;19428;49.024;8.366;2022-08-01T09:35:31;26.70;99.90
33067;DHT22;19428;49.024;8.366;2022-08-01T09:38:16;26.30;99.90
33067;DHT22;19428;49.024;8.366;2022-08-01T09:40:54;26.30;99.90
33067;DHT22;19428;49.024;8.366;2022-08-01T09:43:21;26.10;99.90
33067;DHT22;19428;49.024;8.366;2022-08-01T09:45:47;26.10;99.90
33067;DHT22;19428;49.024;8.366;2022-08-01T09:48:13;26.40;99.90
33067;DHT22;19428;49.024;8.366;2022-08-01T09:50:43;27.00;99.90
33067;DHT22;19428;49.024;8.366;2022-08-01T09:53:10;26.50;99.90
33067;DHT22;19428;49.024;8.366;2022-08-01T09:55:36;26.50;99.90
33067;DHT22;19428;49.024;8.366;2022-08-01T09:58:02;26.70;99.90
33067;DHT22;19428;49.024;8.366;2022-08-01T10:00:30;26.80;99.90
33067;DHT22;19428;49.024;8.366;2022-08-01T10:02:56;26.40;99.90
33067;DHT22;19428;49.024;8.366;2022-08-01T10:05:35;26.40;99.90
33067;DHT22;19428;49.024;8.366;2022-08-01T10:08:04;26.90;99.90
33067;DHT22;19428;49.024;8.366;2022-08-01T10:10:31;27.10;99.90
33067;DHT22;19428;49.024;8.366;2022-08-01T10:13:00;27.10;99.90
33067;DHT22;19428;49.024;8.366;2022-08-01T10:15:27;27.30;99.90
33067;DHT22;19428;49.024;8.366;2022-08-01T10:17:58;27.30;99.90
33067;DHT22;19428;49.024;8.366;2022-08-01T10:20:30;27.60;99.90
33067;DHT22;19428;49.024;8.366;2022-08-01T10:22:59;27.60;99.90
33067;DHT22;19428;49.024;8.366;2022-08-01T10:25:28;27.90;99.90
33067;DHT22;19428;49.024;8.366;2022-08-01T10:27:54;27.70;99.90
33067;DHT22;19428;49.024;8.366;2022-08-01T10:30:22;27.10;99.90
33067;DHT22;19428;49.024;8.366;2022-08-01T10:32:49;26.80;99.90
33067;DHT22;19428;49.024;8.366;2022-08-01T10:35:15;27.10;99.90
33067;DHT22;19428;49.024;8.366;2022-08-01T10:37:43;27.30;99.90
33067;DHT22;19428;49.024;8.366;2022-08-01T10:40:12;27.30;99.90
33067;DHT22;19428;49.024;8.366;2022-08-01T10:42:43;27.50;99.90
33067;DHT22;19428;49.024;8.366;2022-08-01T10:45:10;27.70;99.90
33067;DHT22;19428;49.024;8.366;2022-08-01T10:48:03;27.70;99.90
33067;DHT22;19428;49.024;8.366;2022-08-01T10:50:41;27.50;99.90
33067;DHT22;19428;49.024;8.366;2022-08-01T10:53:17;28.10;99.90
33067;DHT22;19428;49.024;8.366;2022-08-01T10:56:04;28.50;99.90
33067;DHT22;19428;49.024;8.366;2022-08-01T10:58:34;29.00;99.90
33067;DHT22;19428;49.024;8.366;2022-08-01T11:01:24;28.30;99.90
33067;DHT22;19428;49.024;8.366;2022-08-01T11:08:58;28.40;99.90
33067;DHT22;19428;49.024;8.366;2022-08-01T11:11:25;28.30;99.90
33067;DHT22;19428;49.024;8.366;2022-08-01T11:16:39;27.90;99.90
33067;DHT22;19428;49.024;8.366;2022-08-01T11:19:07;28.00;99.90
33067;DHT22;19428;49.024;8.366;2022-08-01T11:27:31;28.40;99.90
33067;DHT22;19428;49.024;8.366;2022-08-01T11:30:23;29.00;99.90
33067;DHT22;19428;49.024;8.366;2022-08-01T11:35:17;28.00;99.90
33067;DHT22;19428;49.024;8.366;2022-08-01T11:37:43;28.40;99.90
33067;DHT22;19428;49.024;8.366;2022-08-01T11:40:26;29.20;99.90
33067;DHT22;19428;49.024;8.366;2022-08-01T11:45:55;29.40;99.70
33067;DHT22;19428;49.024;8.366;2022-08-01T11:48:22;29.90;98.40
33067;DHT22;19428;49.024;8.366;2022-08-01T11:50:50;30.70;97.60
33067;DHT22;19428;49.024;8.366;2022-08-01T11:53:17;29.50;97.50
33067;DHT22;19428;49.024;8.366;2022-08-01T11:55:50;29.30;96.60
33067;DHT22;19428;49.024;8.366;2022-08-01T11:58:23;29.60;96.30
33067;DHT22;19428;49.024;8.366;2022-08-01T12:00:57;30.40;94.20
33067;DHT22;19428;49.024;8.366;2022-08-01T12:03:28;30.80;93.80
33067;DHT22;19428;49.024;8.366;2022-08-01T12:05:55;29.30;95.10
33067;DHT22;19428;49.024;8.366;2022-08-01T12:08:28;29.10;96.10
33067;DHT22;19428;49.024;8.366;2022-08-01T12:10:54;28.90;96.00
33067;DHT22;19428;49.024;8.366;2022-08-01T12:13:21;29.10;95.50
33067;DHT22;19428;49.024;8.366;2022-08-01T12:15:47;29.90;96.00
33067;DHT22;19428;49.024;8.366;2022-08-01T12:18:15;29.90;93.90
33067;DHT22;19428;49.024;8.366;2022-08-01T12:20:42;29.20;94.50
33067;DHT22;19428;49.024;8.366;2022-08-01T12:23:11;30.60;93.80
33067;DHT22;19428;49.024;8.366;2022-08-01T12:25:38;31.10;93.00
33067;DHT22;19428;49.024;8.366;2022-08-01T12:28:10;31.10;91.80
33067;DHT22;19428;49.024;8.366;2022-08-01T12:30:38;30.90;92.10
33067;DHT22;19428;49.024;8.366;2022-08-01T12:33:06;31.60;90.40
33067;DHT22;19428;49.024;8.366;2022-08-01T12:35:34;31.60;89.70
33067;DHT22;19428;49.024;8.366;2022-08-01T12:40:31;30.90;89.40
33067;DHT22;19428;49.024;8.366;2022-08-01T12:43:01;31.20;87.20
33067;DHT22;19428;49.024;8.366;2022-08-01T12:45:36;32.30;86.10
33067;DHT22;19428;49.024;8.366;2022-08-01T12:48:08;30.60;89.40
33067;DHT22;19428;49.024;8.366;2022-08-01T12:50:37;31.00;88.90
33067;DHT22;19428;49.024;8.366;2022-08-01T12:53:03;31.70;85.10
33067;DHT22;19428;49.024;8.366;2022-08-01T12:55:28;31.70;85.70
33067;DHT22;19428;49.024;8.366;2022-08-01T12:58:11;31.90;82.00
33067;DHT22;19428;49.024;8.366;2022-08-01T13:00:38;31.20;83.40
33067;DHT22;19428;49.024;8.366;2022-08-01T13:05:51;31.00;83.60
33067;DHT22;19428;49.024;8.366;2022-08-01T13:08:25;29.80;85.70
33067;DHT22;19428;49.024;8.366;2022-08-01T13:11:10;29.90;88.00
33067;DHT22;19428;49.024;8.366;2022-08-01T13:13:47;31.30;84.90
33067;DHT22;19428;49.024;8.366;2022-08-01T13:16:14;30.80;84.00
33067;DHT22;19428;49.024;8.366;2022-08-01T13:18:40;30.60;83.30
33067;DHT22;19428;49.024;8.366;2022-08-01T13:21:16;31.50;81.80
33067;DHT22;19428;49.024;8.366;2022-08-01T13:24:06;31.10;82.70
33067;DHT22;19428;49.024;8.366;2022-08-01T13:26:58;29.90;84.70
33067;DHT22;19428;49.024;8.366;2022-08-01T13:29:36;29.80;85.10
33067;DHT22;19428;49.024;8.366;2022-08-01T13:32:15;30.40;83.90
33067;DHT22;19428;49.024;8.366;2022-08-01T13:34:44;31.60;84.30
33067;DHT22;19428;49.024;8.366;2022-08-01T13:37:09;32.40;81.10
33067;DHT22;19428;49.024;8.366;2022-08-01T13:39:35;32.70;77.70
33067;DHT22;19428;49.024;8.366;2022-08-01T13:42:08;32.20;78.20
33067;DHT22;19428;49.024;8.366;2022-08-01T13:44:34;32.10;75.70
33067;DHT22;19428;49.024;8.366;2022-08-01T13:46:59;31.30;76.50
33067;DHT22;19428;49.024;8.366;2022-08-01T13:49:25;30.30;78.60
33067;DHT22;19428;49.024;8.366;2022-08-01T13:51:51;30.50;78.90
33067;DHT22;19428;49.024;8.366;2022-08-01T13:54:17;30.80;77.30
33067;DHT22;19428;49.024;8.366;2022-08-01T13:56:43;30.70;77.10
33067;DHT22;19428;49.024;8.366;2022-08-01T13:59:08;29.50;80.50
33067;DHT22;19428;49.024;8.366;2022-08-01T14:01:34;29.60;82.30
33067;DHT22;19428;49.024;8.366;2022-08-01T14:04:01;29.40;82.40
33067;DHT22;19428;49.024;8.366;2022-08-01T14:06:27;29.80;81.70
33067;DHT22;19428;49.024;8.366;2022-08-01T14:08:52;29.80;81.10
33067;DHT22;19428;49.024;8.366;2022-08-01T14:11:18;29.70;80.60
33067;DHT22;19428;49.024;8.366;2022-08-01T14:13:44;30.10;80.90
33067;DHT22;19428;49.024;8.366;2022-08-01T14:16:09;29.90;81.60
33067;DHT22;19428;49.024;8.366;2022-08-01T14:18:35;29.70;81.60
33067;DHT22;19428;49.024;8.366;2022-08-01T14:21:01;29.60;82.30
33067;DHT22;19428;49.024;8.366;2022-08-01T14:23:27;29.90;81.90
33067;DHT22;19428;49.024;8.366;2022-08-01T14:25:52;30.90;81.00
33067;DHT22;19428;49.024;8.366;2022-08-01T14:28:18;30.60;78.30
33067;DHT22;19428;49.024;8.366;2022-08-01T14:30:44;30.50;77.80
33067;DHT22;19428;49.024;8.366;2022-08-01T14:33:10;30.60;77.30
33067;DHT22;19428;49.024;8.366;2022-08-01T14:35:36;31.50;77.30
33067;DHT22;19428;49.024;8.366;2022-08-01T14:38:02;31.40;76.80
33067;DHT22;19428;49.024;8.366;2022-08-01T14:40:28;30.80;76.60
33067;DHT22;19428;49.024;8.366;2022-08-01T14:42:54;31.50;76.30
33067;DHT22;19428;49.024;8.366;2022-08-01T14:45:19;32.00;75.20
33067;DHT22;19428;49.024;8.366;2022-08-01T14:47:45;31.60;75.70
33067;DHT22;19428;49.024;8.366;2022-08-01T14:50:14;30.40;77.20
33067;DHT22;19428;49.024;8.366;2022-08-01T14:52:41;29.90;79.70
33067;DHT22;19428;49.024;8.366;2022-08-01T14:55:08;29.80;80.80
33067;DHT22;19428;49.024;8.366;2022-08-01T14:57:35;29.90;81.90
33067;DHT22;19428;49.024;8.366;2022-08-01T15:00:00;30.00;81.10
33067;DHT22;19428;49.024;8.366;2022-08-01T15:02:26;29.20;82.60
33067;DHT22;19428;49.024;8.366;2022-08-01T15:04:51;29.60;81.70
33067;DHT22;19428;49.024;8.366;2022-08-01T15:07:18;29.70;83.60
33067;DHT22;19428;49.024;8.366;2022-08-01T15:09:45;29.30;83.60
33067;DHT22;19428;49.024;8.366;2022-08-01T15:12:11;28.80;83.60
33067;DHT22;19428;49.024;8.366;2022-08-01T15:14:37;29.10;85.20
33067;DHT22;19428;49.024;8.366;2022-08-01T15:17:23;29.40;84.70
33067;DHT22;19428;49.024;8.366;2022-08-01T15:19:52;29.40;85.20
33067;DHT22;19428;49.024;8.366;2022-08-01T15:22:19;29.50;84.40
33067;DHT22;19428;49.024;8.366;2022-08-01T15:24:46;29.20;84.90
33067;DHT22;19428;49.024;8.366;2022-08-01T15:27:11;28.50;85.70
33067;DHT22;19428;49.024;8.366;2022-08-01T15:29:37;29.00;88.50
33067;DHT22;19428;49.024;8.366;2022-08-01T15:32:05;29.10;87.10
33067;DHT22;19428;49.024;8.366;2022-08-01T15:34:32;28.90;86.90
33067;DHT22;19428;49.024;8.366;2022-08-01T15:36:58;28.70;87.80
33067;DHT22;19428;49.024;8.366;2022-08-01T15:39:24;28.70;87.10
33067;DHT22;19428;49.024;8.366;2022-08-01T15:41:50;28.60;88.10
33067;DHT22;19428;49.024;8.366;2022-08-01T15:44:16;28.40;88.70
33067;DHT22;19428;49.024;8.366;2022-08-01T15:46:47;28.80;88.60
33067;DHT22;19428;49.024;8.366;2022-08-01T15:49:13;28.40;87.90
33067;DHT22;19428;49.024;8.366;2022-08-01T15:51:39;28.50;88.50
33067;DHT22;19428;49.024;8.366;2022-08-01T15:54:05;28.30;89.80
33067;DHT22;19428;49.024;8.366;2022-08-01T15:56:32;28.30;90.00
33067;DHT22;19428;49.024;8.366;2022-08-01T15:58:58;27.90;90.30
33067;DHT22;19428;49.024;8.366;2022-08-01T16:01:24;28.10;90.70
33067;DHT22;19428;49.024;8.366;2022-08-01T16:03:52;27.80;90.70
33067;DHT22;19428;49.024;8.366;2022-08-01T16:06:17;27.60;91.40
33067;DHT22;19428;49.024;8.366;2022-08-01T16:08:43;27.80;91.80
33067;DHT22;19428;49.024;8.366;2022-08-01T16:11:08;27.90;91.70